sensor_id;sensor_type;location;lat;lon;timestamp;temperature;humidity
10492;DHT22;5293;51.464;-2.566;2023-09-19T00:02:04;14.30;99.90
10492;DHT22;5293;51.464;-2.566;2023-09-19T00:04:33;14.20;99.90
10492;DHT22;5293;51.464;-2.566;2023-09-19T00:06:59;14.10;99.90
10492;DHT22;5293;51.464;-2.566;2023-09-19T00:09:25;14.20;99.90
10492;DHT22;5293;51.464;-2.566;2023-09-19T00:11:53;14.10;99.90
10492;DHT22;5293;51.464;-2.566;2023-09-19T00:14:19;14.20;99.90
10492;DHT22;5293;51.464;-2.566;2023-09-19T00:16:45;14.20;99.90
10492;DHT22;5293;51.464;-2.566;2023-09-19T00:19:11;14.20;99.90
10492;DHT22;5293;51.464;-2.566;2023-09-19T00:21:37;14.20;99.90
10492;DHT22;5293;51.464;-2.566;2023-09-19T00:24:04;14.20;99.90
10492;DHT22;5293;51.464;-2.566;2023-09-19T00:26:32;14.20;99.90
10492;DHT22;5293;51.464;-2.566;2023-09-19T00:28:58;14.20;99.90
10492;DHT22;5293;51.464;-2.566;2023-09-19T00:31:30;14.30;99.90
10492;DHT22;5293;51.464;-2.566;2023-09-19T00:33:56;14.30;99.90
10492;DHT22;5293;51.464;-2.566;2023-09-19T00:36:27;14.30;99.90
10492;DHT22;5293;51.464;-2.566;2023-09-19T00:38:54;14.30;99.90
10492;DHT22;5293;51.464;-2.566;2023-09-19T00:41:20;14.20;99.90
10492;DHT22;5293;51.464;-2.566;2023-09-19T00:43:46;14.10;99.90
10492;DHT22;5293;51.464;-2.566;2023-09-19T00:46:17;14.00;99.90
10492;DHT22;5293;51.464;-2.566;2023-09-19T00:48:42;14.00;99.90
10492;DHT22;5293;51.464;-2.566;2023-09-19T00:51:12;13.90;99.90
10492;DHT22;5293;51.464;-2.566;2023-09-19T00:53:39;13.80;99.90
10492;DHT22;5293;51.464;-2.566;2023-09-19T00:56:07;13.80;99.90
10492;DHT22;5293;51.464;-2.566;2023-09-19T00:58:34;13.80;99.90
10492;DHT22;5293;51.464;-2.566;2023-09-19T01:01:01;13.80;99.90
10492;DHT22;5293;51.464;-2.566;2023-09-19T01:03:27;13.80;99.90
10492;DHT22;5293;51.464;-2.566;2023-09-19T01:05:53;13.80;99.90
10492;DHT22;5293;51.464;-2.566;2023-09-19T01:08:19;13.80;99.90
10492;DHT22;5293;51.464;-2.566;2023-09-19T01:11:43;13.80;99.90
10492;DHT22;5293;51.464;-2.566;2023-09-19T01:14:13;13.80;99.90
10492;DHT22;5293;51.464;-2.566;2023-09-19T01:16:48;13.80;99.90
10492;DHT22;5293;51.464;-2.566;2023-09-19T01:25:28;13.90;99.90
10492;DHT22;5293;51.464;-2.566;2023-09-19T01:30:43;13.90;99.90
10492;DHT22;5293;51.464;-2.566;2023-09-19T01:33:09;13.90;99.90
10492;DHT22;5293;51.464;-2.566;2023-09-19T01:35:40;13.90;99.90
10492;DHT22;5293;51.464;-2.566;2023-09-19T01:38:09;13.90;99.90
10492;DHT22;5293;51.464;-2.566;2023-09-19T01:40:42;14.00;99.90
10492;DHT22;5293;51.464;-2.566;2023-09-19T01:43:17;13.90;99.90
10492;DHT22;5293;51.464;-2.566;2023-09-19T01:54:36;13.90;99.90
10492;DHT22;5293;51.464;-2.566;2023-09-19T01:57:09;13.90;99.90
10492;DHT22;5293;51.464;-2.566;2023-09-19T01:59:48;13.90;99.90
10492;DHT22;5293;51.464;-2.566;2023-09-19T02:02:17;13.90;99.90
10492;DHT22;5293;51.464;-2.566;2023-09-19T02:04:43;13.80;99.90
10492;DHT22;5293;51.464;-2.566;2023-09-19T02:07:09;13.80;99.90
10492;DHT22;5293;51.464;-2.566;2023-09-19T02:09:34;13.90;99.90
10492;DHT22;5293;51.464;-2.566;2023-09-19T02:12:05;13.90;99.90
10492;DHT22;5293;51.464;-2.566;2023-09-19T02:14:30;14.00;99.90
10492;DHT22;5293;51.464;-2.566;2023-09-19T02:16:56;14.00;99.90
10492;DHT22;5293;51.464;-2.566;2023-09-19T02:19:22;13.90;99.90
10492;DHT22;5293;51.464;-2.566;2023-09-19T02:21:47;13.90;99.90
10492;DHT22;5293;51.464;-2.566;2023-09-19T02:24:14;13.90;99.90
10492;DHT22;5293;51.464;-2.566;2023-09-19T02:26:41;13.90;99.90
10492;DHT22;5293;51.464;-2.566;2023-09-19T02:29:06;14.00;99.90
10492;DHT22;5293;51.464;-2.566;2023-09-19T02:31:32;14.00;99.90
10492;DHT22;5293;51.464;-2.566;2023-09-19T02:33:58;14.00;99.90
10492;DHT22;5293;51.464;-2.566;2023-09-19T02:36:25;14.00;99.90
10492;DHT22;5293;51.464;-2.566;2023-09-19T02:38:51;14.00;99.90
10492;DHT22;5293;51.464;-2.566;2023-09-19T02:41:17;14.00;99.90
10492;DHT22;5293;51.464;-2.566;2023-09-19T02:43:42;14.00;99.90
10492;DHT22;5293;51.464;-2.566;2023-09-19T02:46:08;14.10;99.90
10492;DHT22;5293;51.464;-2.566;2023-09-19T02:48:34;14.10;99.90
10492;DHT22;5293;51.464;-2.566;2023-09-19T02:51:01;14.20;99.90
10492;DHT22;5293;51.464;-2.566;2023-09-19T02:53:30;14.20;99.90
10492;DHT22;5293;51.464;-2.566;2023-09-19T02:55:57;14.20;99.90
10492;DHT22;5293;51.464;-2.566;2023-09-19T02:58:23;14.30;99.90
10492;DHT22;5293;51.464;-2.566;2023-09-19T03:00:50;14.20;99.90
10492;DHT22;5293;51.464;-2.566;2023-09-19T03:03:17;14.30;99.90
10492;DHT22;5293;51.464;-2.566;2023-09-19T03:05:43;14.30;99.90
10492;DHT22;5293;51.464;-2.566;2023-09-19T03:08:13;14.30;99.90
10492;DHT22;5293;51.464;-2.566;2023-09-19T03:10:40;14.40;99.90
10492;DHT22;5293;51.464;-2.566;2023-09-19T03:13:06;14.40;99.90
10492;DHT22;5293;51.464;-2.566;2023-09-19T03:15:35;14.40;99.90
10492;DHT22;5293;51.464;-2.566;2023-09-19T03:18:04;14.50;99.90
10492;DHT22;5293;51.464;-2.566;2023-09-19T03:20:30;14.50;99.90
10492;DHT22;5293;51.464;-2.566;2023-09-19T03:22:56;14.50;99.90
10492;DHT22;5293;51.464;-2.566;2023-09-19T03:25:22;14.40;99.90
10492;DHT22;5293;51.464;-2.566;2023-09-19T03:27:48;14.50;99.90
10492;DHT22;5293;51.464;-2.566;2023-09-19T03:30:14;14.40;99.90
10492;DHT22;5293;51.464;-2.566;2023-09-19T03:32:47;14.40;99.90
10492;DHT22;5293;51.464;-2.566;2023-09-19T03:35:15;14.30;99.90
10492;DHT22;5293;51.464;-2.566;2023-09-19T03:37:42;14.30;99.90
10492;DHT22;5293;51.464;-2.566;2023-09-19T03:40:09;14.40;99.90
10492;DHT22;5293;51.464;-2.566;2023-09-19T03:42:38;14.40;99.90
10492;DHT22;5293;51.464;-2.566;2023-09-19T03:45:04;14.40;99.90
10492;DHT22;5293;51.464;-2.566;2023-09-19T03:47:31;14.40;99.90
10492;DHT22;5293;51.464;-2.566;2023-09-19T03:49:56;14.50;99.90
10492;DHT22;5293;51.464;-2.566;2023-09-19T03:52:22;14.50;99.90
10492;DHT22;5293;51.464;-2.566;2023-09-19T03:54:47;14.40;99.90
10492;DHT22;5293;51.464;-2.566;2023-09-19T03:57:14;14.40;99.90
10492;DHT22;5293;51.464;-2.566;2023-09-19T03:59:42;14.50;99.90
10492;DHT22;5293;51.464;-2.566;2023-09-19T04:02:11;14.50;99.90
10492;DHT22;5293;51.464;-2.566;2023-09-19T04:04:50;14.50;99.90
10492;DHT22;5293;51.464;-2.566;2023-09-19T04:07:17;14.50;99.90
10492;DHT22;5293;51.464;-2.566;2023-09-19T04:09:44;14.50;99.90
10492;DHT22;5293;51.464;-2.566;2023-09-19T04:12:11;14.50;99.90
10492;DHT22;5293;51.464;-2.566;2023-09-19T04:14:36;14.50;99.90
10492;DHT22;5293;51.464;-2.566;2023-09-19T04:17:02;14.50;99.90
10492;DHT22;5293;51.464;-2.566;2023-09-19T04:19:28;14.50;99.90
10492;DHT22;5293;51.464;-2.566;2023-09-19T04:21:54;14.50;99.90
10492;DHT22;5293;51.464;-2.566;2023-09-19T04:24:20;14.60;99.90
10492;DHT22;5293;51.464;-2.566;2023-09-19T04:26:46;14.50;99.90
10492;DHT22;5293;51.464;-2.566;2023-09-19T04:29:11;14.50;99.90
10492;DHT22;5293;51.464;-2.566;2023-09-19T04:31:39;14.50;99.90
10492;DHT22;5293;51.464;-2.566;2023-09-19T04:34:06;14.50;99.90
10492;DHT22;5293;51.464;-2.566;2023-09-19T04:36:32;14.60;99.90
10492;DHT22;5293;51.464;-2.566;2023-09-19T04:38:57;14.60;99.90
10492;DHT22;5293;51.464;-2.566;2023-09-19T04:41:23;14.60;99.90
10492;DHT22;5293;51.464;-2.566;2023-09-19T04:43:49;14.60;99.90
10492;DHT22;5293;51.464;-2.566;2023-09-19T04:46:16;14.50;99.90
10492;DHT22;5293;51.464;-2.566;2023-09-19T04:48:43;14.50;99.90
10492;DHT22;5293;51.464;-2.566;2023-09-19T04:51:08;14.50;99.90
10492;DHT22;5293;51.464;-2.566;2023-09-19T04:53:36;14.50;99.90
10492;DHT22;5293;51.464;-2.566;2023-09-19T04:56:01;14.40;99.90
10492;DHT22;5293;51.464;-2.566;2023-09-19T04:58:29;14.40;99.90
10492;DHT22;5293;51.464;-2.566;2023-09-19T05:00:54;14.40;99.90
10492;DHT22;5293;51.464;-2.566;2023-09-19T05:03:20;14.50;99.90
10492;DHT22;5293;51.464;-2.566;2023-09-19T05:05:46;14.50;99.90
10492;DHT22;5293;51.464;-2.566;2023-09-19T05:08:12;14.50;99.90
10492;DHT22;5293;51.464;-2.566;2023-09-19T05:10:40;14.50;99.90
10492;DHT22;5293;51.464;-2.566;2023-09-19T05:13:06;14.60;99.90
10492;DHT22;5293;51.464;-2.566;2023-09-19T05:15:33;14.60;99.90
10492;DHT22;5293;51.464;-2.566;2023-09-19T05:18:01;14.70;99.90
10492;DHT22;5293;51.464;-2.566;2023-09-19T05:20:27;14.80;99.90
10492;DHT22;5293;51.464;-2.566;2023-09-19T05:23:01;14.80;99.90
10492;DHT22;5293;51.464;-2.566;2023-09-19T05:25:31;14.70;99.90
10492;DHT22;5293;51.464;-2.566;2023-09-19T05:27:58;14.80;99.90
10492;DHT22;5293;51.464;-2.566;2023-09-19T05:30:27;14.80;99.90
10492;DHT22;5293;51.464;-2.566;2023-09-19T05:32:53;14.90;99.90
10492;DHT22;5293;51.464;-2.566;2023-09-19T05:35:20;14.80;99.90
10492;DHT22;5293;51.464;-2.566;2023-09-19T05:37:47;14.80;99.90
10492;DHT22;5293;51.464;-2.566;2023-09-19T05:40:17;14.80;99.90
10492;DHT22;5293;51.464;-2.566;2023-09-19T05:42:43;14.80;99.90
10492;DHT22;5293;51.464;-2.566;2023-09-19T05:45:09;14.80;99.90
10492;DHT22;5293;51.464;-2.566;2023-09-19T05:47:41;14.80;99.90
10492;DHT22;5293;51.464;-2.566;2023-09-19T05:50:11;14.90;99.90
10492;DHT22;5293;51.464;-2.566;2023-09-19T05:52:38;14.90;99.90
10492;DHT22;5293;51.464;-2.566;2023-09-19T05:55:07;14.90;99.90
10492;DHT22;5293;51.464;-2.566;2023-09-19T05:57:37;14.90;99.90
10492;DHT22;5293;51.464;-2.566;2023-09-19T06:00:08;14.90;99.90
10492;DHT22;5293;51.464;-2.566;2023-09-19T06:02:37;14.90;99.90
10492;DHT22;5293;51.464;-2.566;2023-09-19T06:05:04;15.00;99.90
10492;DHT22;5293;51.464;-2.566;2023-09-19T06:07:32;15.00;99.90
10492;DHT22;5293;51.464;-2.566;2023-09-19T06:10:05;15.00;99.90
10492;DHT22;5293;51.464;-2.566;2023-09-19T06:12:32;15.00;99.90
10492;DHT22;5293;51.464;-2.566;2023-09-19T06:14:59;15.00;99.90
10492;DHT22;5293;51.464;-2.566;2023-09-19T06:17:25;15.10;99.90
10492;DHT22;5293;51.464;-2.566;2023-09-19T06:19:52;15.00;99.90
10492;DHT22;5293;51.464;-2.566;2023-09-19T06:22:18;15.10;99.90
10492;DHT22;5293;51.464;-2.566;2023-09-19T06:24:44;15.10;99.90
10492;DHT22;5293;51.464;-2.566;2023-09-19T06:27:10;15.20;99.90
10492;DHT22;5293;51.464;-2.566;2023-09-19T06:29:35;15.20;99.90
10492;DHT22;5293;51.464;-2.566;2023-09-19T06:32:07;15.20;99.90
10492;DHT22;5293;51.464;-2.566;2023-09-19T06:34:34;15.20;99.90
10492;DHT22;5293;51.464;-2.566;2023-09-19T06:36:59;15.20;99.90
10492;DHT22;5293;51.464;-2.566;2023-09-19T06:39:25;15.30;99.90
10492;DHT22;5293;51.464;-2.566;2023-09-19T06:41:52;15.30;99.90
10492;DHT22;5293;51.464;-2.566;2023-09-19T06:44:19;15.30;99.90
10492;DHT22;5293;51.464;-2.566;2023-09-19T06:46:47;15.40;99.90
10492;DHT22;5293;51.464;-2.566;2023-09-19T06:49:17;15.40;99.90
10492;DHT22;5293;51.464;-2.566;2023-09-19T06:51:42;15.40;99.90
10492;DHT22;5293;51.464;-2.566;2023-09-19T06:54:09;15.40;99.90
10492;DHT22;5293;51.464;-2.566;2023-09-19T06:56:35;15.50;99.90
10492;DHT22;5293;51.464;-2.566;2023-09-19T06:59:01;15.50;99.90
10492;DHT22;5293;51.464;-2.566;2023-09-19T07:01:28;15.50;99.90
10492;DHT22;5293;51.464;-2.566;2023-09-19T07:03:53;15.50;99.90
10492;DHT22;5293;51.464;-2.566;2023-09-19T07:06:20;15.50;99.90
10492;DHT22;5293;51.464;-2.566;2023-09-19T07:08:46;15.50;99.90
10492;DHT22;5293;51.464;-2.566;2023-09-19T07:11:11;15.50;99.90
10492;DHT22;5293;51.464;-2.566;2023-09-19T07:13:38;15.50;99.90
10492;DHT22;5293;51.464;-2.566;2023-09-19T07:16:04;15.60;99.90
10492;DHT22;5293;51.464;-2.566;2023-09-19T07:18:30;15.70;99.90
10492;DHT22;5293;51.464;-2.566;2023-09-19T07:20:57;15.70;99.90
10492;DHT22;5293;51.464;-2.566;2023-09-19T07:23:26;15.80;99.90
10492;DHT22;5293;51.464;-2.566;2023-09-19T07:25:52;15.80;99.90
10492;DHT22;5293;51.464;-2.566;2023-09-19T07:28:21;15.80;99.90
10492;DHT22;5293;51.464;-2.566;2023-09-19T07:30:48;15.80;99.90
10492;DHT22;5293;51.464;-2.566;2023-09-19T07:33:13;15.90;99.90
10492;DHT22;5293;51.464;-2.566;2023-09-19T07:35:40;15.80;99.90
10492;DHT22;5293;51.464;-2.566;2023-09-19T07:38:06;15.90;99.90
10492;DHT22;5293;51.464;-2.566;2023-09-19T07:40:32;16.00;99.90
10492;DHT22;5293;51.464;-2.566;2023-09-19T07:42:58;16.00;99.90
10492;DHT22;5293;51.464;-2.566;2023-09-19T07:45:36;16.10;99.90
10492;DHT22;5293;51.464;-2.566;2023-09-19T07:48:02;16.10;99.90
10492;DHT22;5293;51.464;-2.566;2023-09-19T07:50:30;16.20;99.90
10492;DHT22;5293;51.464;-2.566;2023-09-19T07:52:55;16.20;99.90
10492;DHT22;5293;51.464;-2.566;2023-09-19T07:55:22;16.30;99.90
10492;DHT22;5293;51.464;-2.566;2023-09-19T07:57:54;16.30;99.90
10492;DHT22;5293;51.464;-2.566;2023-09-19T08:00:19;16.30;99.90
10492;DHT22;5293;51.464;-2.566;2023-09-19T08:02:45;16.20;99.90
10492;DHT22;5293;51.464;-2.566;2023-09-19T08:05:12;16.30;99.90
10492;DHT22;5293;51.464;-2.566;2023-09-19T08:07:43;16.30;99.90
10492;DHT22;5293;51.464;-2.566;2023-09-19T08:10:09;16.30;99.90
10492;DHT22;5293;51.464;-2.566;2023-09-19T08:12:44;16.40;99.90
10492;DHT22;5293;51.464;-2.566;2023-09-19T08:15:18;16.60;99.90
10492;DHT22;5293;51.464;-2.566;2023-09-19T08:17:48;16.80;99.90
10492;DHT22;5293;51.464;-2.566;2023-09-19T08:20:14;16.90;99.90
10492;DHT22;5293;51.464;-2.566;2023-09-19T08:22:51;17.10;99.90
10492;DHT22;5293;51.464;-2.566;2023-09-19T08:25:21;17.10;99.90
10492;DHT22;5293;51.464;-2.566;2023-09-19T08:27:51;17.10;99.90
10492;DHT22;5293;51.464;-2.566;2023-09-19T08:30:20;17.10;99.90
10492;DHT22;5293;51.464;-2.566;2023-09-19T08:32:58;17.00;99.90
10492;DHT22;5293;51.464;-2.566;2023-09-19T08:35:24;17.00;99.90
10492;DHT22;5293;51.464;-2.566;2023-09-19T08:37:50;16.90;99.90
10492;DHT22;5293;51.464;-2.566;2023-09-19T08:40:17;16.90;99.90
10492;DHT22;5293;51.464;-2.566;2023-09-19T08:42:53;16.80;99.90
10492;DHT22;5293;51.464;-2.566;2023-09-19T08:45:20;16.80;99.90
10492;DHT22;5293;51.464;-2.566;2023-09-19T08:48:43;16.60;99.90
10492;DHT22;5293;51.464;-2.566;2023-09-19T08:56:09;16.50;99.90
10492;DHT22;5293;51.464;-2.566;2023-09-19T08:58:46;16.50;99.90
10492;DHT22;5293;51.464;-2.566;2023-09-19T09:01:17;16.50;99.90
10492;DHT22;5293;51.464;-2.566;2023-09-19T09:03:53;16.50;99.90
10492;DHT22;5293;51.464;-2.566;2023-09-19T09:06:20;16.50;99.90
10492;DHT22;5293;51.464;-2.566;2023-09-19T09:08:46;16.60;99.90
10492;DHT22;5293;51.464;-2.566;2023-09-19T09:11:16;16.70;99.90
10492;DHT22;5293;51.464;-2.566;2023-09-19T09:13:47;16.70;99.90
10492;DHT22;5293;51.464;-2.566;2023-09-19T09:16:13;16.70;99.90
10492;DHT22;5293;51.464;-2.566;2023-09-19T09:18:44;16.80;99.90
10492;DHT22;5293;51.464;-2.566;2023-09-19T09:21:11;16.90;99.90
10492;DHT22;5293;51.464;-2.566;2023-09-19T09:23:36;16.90;99.90
10492;DHT22;5293;51.464;-2.566;2023-09-19T09:26:02;16.90;99.90
10492;DHT22;5293;51.464;-2.566;2023-09-19T09:28:30;16.90;99.90
10492;DHT22;5293;51.464;-2.566;2023-09-19T09:30:57;17.00;99.90
10492;DHT22;5293;51.464;-2.566;2023-09-19T09:33:34;17.10;99.90
10492;DHT22;5293;51.464;-2.566;2023-09-19T09:36:01;17.10;99.90
10492;DHT22;5293;51.464;-2.566;2023-09-19T09:38:29;17.20;99.90
10492;DHT22;5293;51.464;-2.566;2023-09-19T09:40:59;17.10;99.90
10492;DHT22;5293;51.464;-2.566;2023-09-19T09:43:38;17.10;99.90
10492;DHT22;5293;51.464;-2.566;2023-09-19T09:46:26;17.10;99.90
10492;DHT22;5293;51.464;-2.566;2023-09-19T09:51:43;17.30;99.90
10492;DHT22;5293;51.464;-2.566;2023-09-19T09:54:12;17.50;99.90
10492;DHT22;5293;51.464;-2.566;2023-09-19T09:56:58;17.40;99.90
10492;DHT22;5293;51.464;-2.566;2023-09-19T09:59:48;17.50;99.90
10492;DHT22;5293;51.464;-2.566;2023-09-19T10:02:35;17.30;99.90
10492;DHT22;5293;51.464;-2.566;2023-09-19T10:05:17;17.30;99.90
10492;DHT22;5293;51.464;-2.566;2023-09-19T10:07:46;17.20;99.90
10492;DHT22;5293;51.464;-2.566;2023-09-19T10:10:37;17.20;99.90
10492;DHT22;5293;51.464;-2.566;2023-09-19T10:13:13;17.20;99.90
10492;DHT22;5293;51.464;-2.566;2023-09-19T10:15:42;17.10;99.90
10492;DHT22;5293;51.464;-2.566;2023-09-19T10:18:20;17.20;99.90
10492;DHT22;5293;51.464;-2.566;2023-09-19T10:20:46;17.20;99.90
10492;DHT22;5293;51.464;-2.566;2023-09-19T10:23:15;17.20;99.90
10492;DHT22;5293;51.464;-2.566;2023-09-19T10:25:48;17.20;99.90
10492;DHT22;5293;51.464;-2.566;2023-09-19T10:28:15;17.20;99.90
10492;DHT22;5293;51.464;-2.566;2023-09-19T10:30:45;17.10;99.90
10492;DHT22;5293;51.464;-2.566;2023-09-19T10:33:14;17.10;99.90
10492;DHT22;5293;51.464;-2.566;2023-09-19T10:35:45;17.10;99.90
10492;DHT22;5293;51.464;-2.566;2023-09-19T10:38:13;17.10;99.90
10492;DHT22;5293;51.464;-2.566;2023-09-19T10:40:40;17.00;99.90
10492;DHT22;5293;51.464;-2.566;2023-09-19T10:43:12;17.10;99.90
10492;DHT22;5293;51.464;-2.566;2023-09-19T10:45:39;17.20;99.90
10492;DHT22;5293;51.464;-2.566;2023-09-19T10:48:06;17.20;99.90
10492;DHT22;5293;51.464;-2.566;2023-09-19T10:53:14;17.30;99.90
10492;DHT22;5293;51.464;-2.566;2023-09-19T10:55:52;17.40;99.90
10492;DHT22;5293;51.464;-2.566;2023-09-19T10:58:45;17.40;99.90
10492;DHT22;5293;51.464;-2.566;2023-09-19T11:01:12;17.40;99.90
10492;DHT22;5293;51.464;-2.566;2023-09-19T11:03:38;17.50;99.90
10492;DHT22;5293;51.464;-2.566;2023-09-19T11:08:56;17.50;99.90
10492;DHT22;5293;51.464;-2.566;2023-09-19T11:30:44;17.50;99.90
10492;DHT22;5293;51.464;-2.566;2023-09-19T11:46:27;17.50;99.90
10492;DHT22;5293;51.464;-2.566;2023-09-19T11:48:54;17.60;99.90
10492;DHT22;5293;51.464;-2.566;2023-09-19T11:51:24;17.60;99.90
10492;DHT22;5293;51.464;-2.566;2023-09-19T11:54:03;17.70;99.90
10492;DHT22;5293;51.464;-2.566;2023-09-19T11:56:29;17.70;99.90
10492;DHT22;5293;51.464;-2.566;2023-09-19T11:58:57;17.70;99.90
10492;DHT22;5293;51.464;-2.566;2023-09-19T12:01:33;17.70;99.90
10492;DHT22;5293;51.464;-2.566;2023-09-19T12:04:01;17.70;99.90
10492;DHT22;5293;51.464;-2.566;2023-09-19T12:06:28;17.60;99.90
10492;DHT22;5293;51.464;-2.566;2023-09-19T12:09:00;17.60;99.90
10492;DHT22;5293;51.464;-2.566;2023-09-19T12:11:30;17.60;99.90
10492;DHT22;5293;51.464;-2.566;2023-09-19T12:13:59;17.60;99.90
10492;DHT22;5293;51.464;-2.566;2023-09-19T12:16:26;17.50;99.90
10492;DHT22;5293;51.464;-2.566;2023-09-19T12:18:56;17.50;99.90
10492;DHT22;5293;51.464;-2.566;2023-09-19T12:21:29;17.50;99.90
10492;DHT22;5293;51.464;-2.566;2023-09-19T12:24:04;17.60;99.90
10492;DHT22;5293;51.464;-2.566;2023-09-19T12:26:43;17.60;99.90
10492;DHT22;5293;51.464;-2.566;2023-09-19T12:29:29;17.60;99.90
10492;DHT22;5293;51.464;-2.566;2023-09-19T12:31:57;17.70;99.90
10492;DHT22;5293;51.464;-2.566;2023-09-19T12:34:32;17.70;99.90
10492;DHT22;5293;51.464;-2.566;2023-09-19T12:37:08;17.80;99.90
10492;DHT22;5293;51.464;-2.566;2023-09-19T12:39:47;17.90;99.90
10492;DHT22;5293;51.464;-2.566;2023-09-19T12:42:19;17.90;99.90
10492;DHT22;5293;51.464;-2.566;2023-09-19T12:44:50;18.10;99.90
10492;DHT22;5293;51.464;-2.566;2023-09-19T12:47:22;18.10;99.90
10492;DHT22;5293;51.464;-2.566;2023-09-19T12:50:14;18.20;99.90
10492;DHT22;5293;51.464;-2.566;2023-09-19T12:52:47;18.20;99.90
10492;DHT22;5293;51.464;-2.566;2023-09-19T12:55:26;18.10;99.90
10492;DHT22;5293;51.464;-2.566;2023-09-19T13:00:39;18.10;99.90
10492;DHT22;5293;51.464;-2.566;2023-09-19T13:03:26;18.10;99.90
10492;DHT22;5293;51.464;-2.566;2023-09-19T13:08:40;18.10;99.90
10492;DHT22;5293;51.464;-2.566;2023-09-19T13:13:47;18.10;99.90
10492;DHT22;5293;51.464;-2.566;2023-09-19T13:16:15;18.10;99.90
10492;DHT22;5293;51.464;-2.566;2023-09-19T13:18:49;18.20;99.90
10492;DHT22;5293;51.464;-2.566;2023-09-19T13:21:17;18.40;99.90
10492;DHT22;5293;51.464;-2.566;2023-09-19T13:23:54;18.50;99.90
10492;DHT22;5293;51.464;-2.566;2023-09-19T13:26:26;18.50;99.90
10492;DHT22;5293;51.464;-2.566;2023-09-19T13:28:54;18.60;99.90
10492;DHT22;5293;51.464;-2.566;2023-09-19T13:31:20;18.50;99.90
10492;DHT22;5293;51.464;-2.566;2023-09-19T13:33:47;18.70;99.90
10492;DHT22;5293;51.464;-2.566;2023-09-19T13:36:13;18.80;99.90
10492;DHT22;5293;51.464;-2.566;2023-09-19T13:38:40;18.80;99.90
10492;DHT22;5293;51.464;-2.566;2023-09-19T13:41:09;18.90;99.90
10492;DHT22;5293;51.464;-2.566;2023-09-19T13:43:36;18.90;99.90
10492;DHT22;5293;51.464;-2.566;2023-09-19T13:46:01;19.00;99.90
10492;DHT22;5293;51.464;-2.566;2023-09-19T13:48:27;19.10;99.90
10492;DHT22;5293;51.464;-2.566;2023-09-19T13:50:55;19.20;99.90
10492;DHT22;5293;51.464;-2.566;2023-09-19T13:53:22;19.20;99.90
10492;DHT22;5293;51.464;-2.566;2023-09-19T13:55:47;19.20;99.90
10492;DHT22;5293;51.464;-2.566;2023-09-19T13:58:16;19.10;99.90
10492;DHT22;5293;51.464;-2.566;2023-09-19T14:00:42;19.20;99.90
10492;DHT22;5293;51.464;-2.566;2023-09-19T14:03:08;19.20;99.90
10492;DHT22;5293;51.464;-2.566;2023-09-19T14:05:36;19.20;99.90
10492;DHT22;5293;51.464;-2.566;2023-09-19T14:08:03;19.20;99.90
10492;DHT22;5293;51.464;-2.566;2023-09-19T14:10:29;19.20;99.90
10492;DHT22;5293;51.464;-2.566;2023-09-19T14:12:57;19.20;99.90
10492;DHT22;5293;51.464;-2.566;2023-09-19T14:15:26;19.30;99.90
10492;DHT22;5293;51.464;-2.566;2023-09-19T14:17:59;19.40;99.90
10492;DHT22;5293;51.464;-2.566;2023-09-19T14:20:26;19.40;99.90
10492;DHT22;5293;51.464;-2.566;2023-09-19T14:22:56;19.40;99.90
10492;DHT22;5293;51.464;-2.566;2023-09-19T14:25:26;19.30;99.90
10492;DHT22;5293;51.464;-2.566;2023-09-19T14:27:52;19.20;99.90
10492;DHT22;5293;51.464;-2.566;2023-09-19T14:30:17;19.30;99.90
10492;DHT22;5293;51.464;-2.566;2023-09-19T14:32:43;19.20;99.90
10492;DHT22;5293;51.464;-2.566;2023-09-19T14:35:09;19.30;99.90
10492;DHT22;5293;51.464;-2.566;2023-09-19T14:37:36;19.30;99.90
10492;DHT22;5293;51.464;-2.566;2023-09-19T14:40:04;19.40;99.90
10492;DHT22;5293;51.464;-2.566;2023-09-19T14:42:35;19.50;99.90
10492;DHT22;5293;51.464;-2.566;2023-09-19T14:45:02;19.70;99.90
10492;DHT22;5293;51.464;-2.566;2023-09-19T14:47:30;19.70;99.90
10492;DHT22;5293;51.464;-2.566;2023-09-19T14:49:57;19.70;99.90
10492;DHT22;5293;51.464;-2.566;2023-09-19T14:52:23;19.70;99.90
10492;DHT22;5293;51.464;-2.566;2023-09-19T14:54:52;19.50;99.90
10492;DHT22;5293;51.464;-2.566;2023-09-19T14:57:18;19.40;99.90
10492;DHT22;5293;51.464;-2.566;2023-09-19T14:59:44;19.20;99.90
10492;DHT22;5293;51.464;-2.566;2023-09-19T15:02:10;19.30;99.90
10492;DHT22;5293;51.464;-2.566;2023-09-19T15:04:35;19.20;99.90
10492;DHT22;5293;51.464;-2.566;2023-09-19T15:07:01;19.30;99.90
10492;DHT22;5293;51.464;-2.566;2023-09-19T15:09:28;19.40;99.90
10492;DHT22;5293;51.464;-2.566;2023-09-19T15:11:57;19.40;99.90
10492;DHT22;5293;51.464;-2.566;2023-09-19T15:14:23;19.40;99.90
10492;DHT22;5293;51.464;-2.566;2023-09-19T15:16:50;19.50;99.90
10492;DHT22;5293;51.464;-2.566;2023-09-19T15:19:16;19.50;99.90
10492;DHT22;5293;51.464;-2.566;2023-09-19T15:21:43;19.50;99.90
10492;DHT22;5293;51.464;-2.566;2023-09-19T15:24:09;19.60;99.90
10492;DHT22;5293;51.464;-2.566;2023-09-19T15:26:38;19.60;99.90
10492;DHT22;5293;51.464;-2.566;2023-09-19T15:29:08;19.50;99.90
10492;DHT22;5293;51.464;-2.566;2023-09-19T15:31:35;19.50;99.90
10492;DHT22;5293;51.464;-2.566;2023-09-19T15:34:04;19.40;99.90
10492;DHT22;5293;51.464;-2.566;2023-09-19T15:36:32;19.30;99.90
10492;DHT22;5293;51.464;-2.566;2023-09-19T15:39:06;19.30;99.90
10492;DHT22;5293;51.464;-2.566;2023-09-19T15:41:33;19.30;99.90
10492;DHT22;5293;51.464;-2.566;2023-09-19T15:44:01;19.10;99.90
10492;DHT22;5293;51.464;-2.566;2023-09-19T15:46:31;19.00;99.90
10492;DHT22;5293;51.464;-2.566;2023-09-19T15:48:57;18.90;99.90
10492;DHT22;5293;51.464;-2.566;2023-09-19T15:51:23;18.70;99.90
10492;DHT22;5293;51.464;-2.566;2023-09-19T15:53:54;18.60;99.90
10492;DHT22;5293;51.464;-2.566;2023-09-19T15:56:22;18.50;99.90
10492;DHT22;5293;51.464;-2.566;2023-09-19T15:58:50;18.50;99.90
10492;DHT22;5293;51.464;-2.566;2023-09-19T16:01:16;18.50;99.90
10492;DHT22;5293;51.464;-2.566;2023-09-19T16:03:52;18.40;99.90
10492;DHT22;5293;51.464;-2.566;2023-09-19T16:06:23;18.40;99.90
10492;DHT22;5293;51.464;-2.566;2023-09-19T16:08:50;18.40;99.90
10492;DHT22;5293;51.464;-2.566;2023-09-19T16:11:17;18.30;99.90
10492;DHT22;5293;51.464;-2.566;2023-09-19T16:13:43;18.30;99.90
10492;DHT22;5293;51.464;-2.566;2023-09-19T16:16:11;18.20;99.90
10492;DHT22;5293;51.464;-2.566;2023-09-19T16:18:38;18.20;99.90
10492;DHT22;5293;51.464;-2.566;2023-09-19T16:21:05;18.20;99.90
10492;DHT22;5293;51.464;-2.566;2023-09-19T16:23:31;18.20;99.90
10492;DHT22;5293;51.464;-2.566;2023-09-19T16:26:17;18.20;99.90
10492;DHT22;5293;51.464;-2.566;2023-09-19T16:28:49;18.30;99.90
10492;DHT22;5293;51.464;-2.566;2023-09-19T16:31:15;18.30;99.90
10492;DHT22;5293;51.464;-2.566;2023-09-19T16:33:43;18.20;99.90
10492;DHT22;5293;51.464;-2.566;2023-09-19T16:36:10;18.20;99.90
10492;DHT22;5293;51.464;-2.566;2023-09-19T16:38:37;18.30;99.90
10492;DHT22;5293;51.464;-2.566;2023-09-19T16:41:03;18.30;99.90
10492;DHT22;5293;51.464;-2.566;2023-09-19T16:43:33;18.30;99.90
10492;DHT22;5293;51.464;-2.566;2023-09-19T16:46:01;18.40;99.90
10492;DHT22;5293;51.464;-2.566;2023-09-19T16:48:28;18.30;99.90
10492;DHT22;5293;51.464;-2.566;2023-09-19T16:51:04;18.50;99.90
10492;DHT22;5293;51.464;-2.566;2023-09-19T16:53:31;18.60;99.90